sensor_id;sensor_type;location;lat;lon;timestamp;pressure;altitude;pressure_sealevel;temperature;humidity
13387;BME280;6763;48.524;9.044;2023-01-29T00:01:54;98807.56;;;6.61;47.06
13387;BME280;6763;48.524;9.044;2023-01-29T00:04:20;98808.41;;;6.62;46.94
13387;BME280;6763;48.524;9.044;2023-01-29T00:06:45;98807.53;;;6.60;46.73
13387;BME280;6763;48.524;9.044;2023-01-29T00:09:11;98801.50;;;6.58;46.83
13387;BME280;6763;48.524;9.044;2023-01-29T00:11:37;98802.34;;;6.55;46.45
13387;BME280;6763;48.524;9.044;2023-01-29T00:14:02;98806.56;;;6.50;46.52
13387;BME280;6763;48.524;9.044;2023-01-29T00:16:27;98803.94;;;6.49;46.67
13387;BME280;6763;48.524;9.044;2023-01-29T00:18:53;98814.22;;;6.46;46.89
13387;BME280;6763;48.524;9.044;2023-01-29T00:21:19;98809.91;;;6.45;47.09
13387;BME280;6763;48.524;9.044;2023-01-29T00:23:46;98805.59;;;6.44;47.09
13387;BME280;6763;48.524;9.044;2023-01-29T00:26:12;98801.31;;;6.43;47.38
13387;BME280;6763;48.524;9.044;2023-01-29T00:28:38;98800.44;;;6.42;46.83
13387;BME280;6763;48.524;9.044;2023-01-29T00:33:33;98799.56;;;6.40;47.12
13387;BME280;6763;48.524;9.044;2023-01-29T00:36:01;98809.84;;;6.40;47.28
13387;BME280;6763;48.524;9.044;2023-01-29T00:38:27;98804.66;;;6.39;46.89
13387;BME280;6763;48.524;9.044;2023-01-29T00:40:52;98801.25;;;6.40;47.21
13387;BME280;6763;48.524;9.044;2023-01-29T00:43:36;98802.97;;;6.39;47.20
13387;BME280;6763;48.524;9.044;2023-01-29T00:46:20;98800.44;;;6.42;47.29
13387;BME280;6763;48.524;9.044;2023-01-29T00:48:45;98801.34;;;6.46;47.16
13387;BME280;6763;48.524;9.044;2023-01-29T00:51:11;98795.41;;;6.48;46.76
13387;BME280;6763;48.524;9.044;2023-01-29T00:53:36;98791.97;;;6.49;46.98
13387;BME280;6763;48.524;9.044;2023-01-29T00:56:01;98786.88;;;6.52;47.00
13387;BME280;6763;48.524;9.044;2023-01-29T00:58:27;98796.28;;;6.52;46.66
13387;BME280;6763;48.524;9.044;2023-01-29T01:00:59;98799.72;;;6.52;46.82
13387;BME280;6763;48.524;9.044;2023-01-29T01:03:25;98799.72;;;6.51;46.58
13387;BME280;6763;48.524;9.044;2023-01-29T01:06:01;98797.97;;;6.51;46.70
13387;BME280;6763;48.524;9.044;2023-01-29T01:08:27;98800.56;;;6.51;46.52
13387;BME280;6763;48.524;9.044;2023-01-29T01:11:11;98802.25;;;6.49;46.57
13387;BME280;6763;48.524;9.044;2023-01-29T01:13:36;98803.06;;;6.47;46.58
13387;BME280;6763;48.524;9.044;2023-01-29T01:16:11;98799.63;;;6.45;46.76
13387;BME280;6763;48.524;9.044;2023-01-29T01:18:36;98788.41;;;6.41;46.45
13387;BME280;6763;48.524;9.044;2023-01-29T01:21:02;98796.13;;;6.41;46.65
13387;BME280;6763;48.524;9.044;2023-01-29T01:23:27;98800.44;;;6.44;47.10
13387;BME280;6763;48.524;9.044;2023-01-29T01:25:53;98799.63;;;6.46;46.95
13387;BME280;6763;48.524;9.044;2023-01-29T01:28:18;98800.53;;;6.48;46.93
13387;BME280;6763;48.524;9.044;2023-01-29T01:30:43;98794.56;;;6.51;46.81
13387;BME280;6763;48.524;9.044;2023-01-29T01:33:09;98801.41;;;6.52;46.89
13387;BME280;6763;48.524;9.044;2023-01-29T01:35:34;98802.31;;;6.54;46.73
13387;BME280;6763;48.524;9.044;2023-01-29T01:37:59;98798.88;;;6.53;46.69
13387;BME280;6763;48.524;9.044;2023-01-29T01:40:25;98799.72;;;6.54;46.78
13387;BME280;6763;48.524;9.044;2023-01-29T01:42:53;98793.75;;;6.55;46.93
13387;BME280;6763;48.524;9.044;2023-01-29T01:47:47;98792.06;;;6.57;46.69
13387;BME280;6763;48.524;9.044;2023-01-29T01:50:18;98785.25;;;6.59;46.60
13387;BME280;6763;48.524;9.044;2023-01-29T01:52:49;98784.34;;;6.57;45.87
13387;BME280;6763;48.524;9.044;2023-01-29T01:55:18;98781.72;;;6.54;45.99
13387;BME280;6763;48.524;9.044;2023-01-29T01:57:47;98776.56;;;6.52;46.30
13387;BME280;6763;48.524;9.044;2023-01-29T02:00:16;98775.69;;;6.52;45.74
13387;BME280;6763;48.524;9.044;2023-01-29T02:02:43;98779.13;;;6.51;46.13
13387;BME280;6763;48.524;9.044;2023-01-29T02:05:31;98769.69;;;6.48;46.17
13387;BME280;6763;48.524;9.044;2023-01-29T02:08:25;98775.66;;;6.49;46.05
13387;BME280;6763;48.524;9.044;2023-01-29T02:11:12;98778.22;;;6.46;46.19
13387;BME280;6763;48.524;9.044;2023-01-29T02:13:38;98782.50;;;6.47;46.19
13387;BME280;6763;48.524;9.044;2023-01-29T02:16:04;98780.78;;;6.47;46.08
13387;BME280;6763;48.524;9.044;2023-01-29T02:18:29;98788.50;;;6.49;46.19
13387;BME280;6763;48.524;9.044;2023-01-29T02:21:40;98786.00;;;6.52;45.94
13387;BME280;6763;48.524;9.044;2023-01-29T02:26:59;98789.44;;;6.54;46.26
13387;BME280;6763;48.524;9.044;2023-01-29T02:32:01;98792.06;;;6.57;45.93
13387;BME280;6763;48.524;9.044;2023-01-29T02:34:37;98802.38;;;6.58;46.11
13387;BME280;6763;48.524;9.044;2023-01-29T02:37:41;98798.06;;;6.56;45.97
13387;BME280;6763;48.524;9.044;2023-01-29T02:40:28;98798.03;;;6.54;45.88
13387;BME280;6763;48.524;9.044;2023-01-29T02:43:06;98792.88;;;6.53;46.07
13387;BME280;6763;48.524;9.044;2023-01-29T02:45:48;98798.03;;;6.53;46.36
13387;BME280;6763;48.524;9.044;2023-01-29T02:48:22;98803.13;;;6.50;45.22
13387;BME280;6763;48.524;9.044;2023-01-29T02:50:59;98803.03;;;6.44;45.00
13387;BME280;6763;48.524;9.044;2023-01-29T02:53:37;98804.72;;;6.42;45.32
13387;BME280;6763;48.524;9.044;2023-01-29T02:56:19;98802.13;;;6.40;45.49
13387;BME280;6763;48.524;9.044;2023-01-29T02:58:56;98802.13;;;6.42;45.78
13387;BME280;6763;48.524;9.044;2023-01-29T03:01:45;98797.88;;;6.42;45.50
13387;BME280;6763;48.524;9.044;2023-01-29T03:04:18;98803.06;;;6.45;45.87
13387;BME280;6763;48.524;9.044;2023-01-29T03:06:53;98795.34;;;6.47;45.63
13387;BME280;6763;48.524;9.044;2023-01-29T03:09:24;98802.25;;;6.48;45.75
13387;BME280;6763;48.524;9.044;2023-01-29T03:11:53;98809.13;;;6.50;45.23
13387;BME280;6763;48.524;9.044;2023-01-29T03:14:34;98796.28;;;6.50;44.91
13387;BME280;6763;48.524;9.044;2023-01-29T03:17:24;98791.91;;;6.43;44.83
13387;BME280;6763;48.524;9.044;2023-01-29T03:19:50;98789.28;;;6.42;44.82
13387;BME280;6763;48.524;9.044;2023-01-29T03:22:17;98788.44;;;6.43;44.90
13387;BME280;6763;48.524;9.044;2023-01-29T03:27:38;98784.19;;;6.45;45.11
13387;BME280;6763;48.524;9.044;2023-01-29T03:30:26;98787.63;;;6.45;45.12
13387;BME280;6763;48.524;9.044;2023-01-29T03:33:12;98787.63;;;6.47;45.52
13387;BME280;6763;48.524;9.044;2023-01-29T03:35:50;98790.25;;;6.50;44.94
13387;BME280;6763;48.524;9.044;2023-01-29T03:38:18;98787.69;;;6.51;45.09
13387;BME280;6763;48.524;9.044;2023-01-29T03:40:54;98792.00;;;6.52;44.95
13387;BME280;6763;48.524;9.044;2023-01-29T03:48:44;98794.56;;;6.51;44.89
13387;BME280;6763;48.524;9.044;2023-01-29T03:57:04;98789.34;;;6.45;44.30
13387;BME280;6763;48.524;9.044;2023-01-29T03:59:59;98785.84;;;6.41;44.68
13387;BME280;6763;48.524;9.044;2023-01-29T04:02:46;98790.09;;;6.39;44.26
13387;BME280;6763;48.524;9.044;2023-01-29T04:05:19;98786.66;;;6.39;44.05
13387;BME280;6763;48.524;9.044;2023-01-29T04:07:45;98795.25;;;6.39;44.38
13387;BME280;6763;48.524;9.044;2023-01-29T04:10:15;98799.53;;;6.39;44.37
13387;BME280;6763;48.524;9.044;2023-01-29T04:12:49;98792.69;;;6.39;44.04
13387;BME280;6763;48.524;9.044;2023-01-29T04:15:17;98791.81;;;6.39;44.37
13387;BME280;6763;48.524;9.044;2023-01-29T04:17:50;98795.25;;;6.39;44.01
13387;BME280;6763;48.524;9.044;2023-01-29T04:20:17;98794.38;;;6.39;44.05
13387;BME280;6763;48.524;9.044;2023-01-29T04:22:45;98794.38;;;6.39;44.18
13387;BME280;6763;48.524;9.044;2023-01-29T04:25:15;98800.38;;;6.39;44.13
13387;BME280;6763;48.524;9.044;2023-01-29T04:27:56;98794.38;;;6.39;43.80
13387;BME280;6763;48.524;9.044;2023-01-29T04:30:34;98804.66;;;6.37;43.75
13387;BME280;6763;48.524;9.044;2023-01-29T04:43:41;98795.25;;;6.39;43.85
13387;BME280;6763;48.524;9.044;2023-01-29T04:46:16;98798.66;;;6.38;43.56
13387;BME280;6763;48.524;9.044;2023-01-29T04:51:21;98796.91;;;6.36;43.32
13387;BME280;6763;48.524;9.044;2023-01-29T04:56:50;98795.19;;;6.35;43.41
13387;BME280;6763;48.524;9.044;2023-01-29T04:59:29;98787.47;;;6.35;43.49
13387;BME280;6763;48.524;9.044;2023-01-29T05:01:58;98784.03;;;6.34;43.16
13387;BME280;6763;48.524;9.044;2023-01-29T05:04:25;98787.47;;;6.35;43.06
13387;BME280;6763;48.524;9.044;2023-01-29T05:06:51;98780.59;;;6.34;43.04
13387;BME280;6763;48.524;9.044;2023-01-29T05:09:18;98789.13;;;6.31;43.12
13387;BME280;6763;48.524;9.044;2023-01-29T05:11:45;98795.09;;;6.29;43.28
13387;BME280;6763;48.524;9.044;2023-01-29T05:14:12;98794.22;;;6.27;43.26
13387;BME280;6763;48.524;9.044;2023-01-29T05:16:43;98792.47;;;6.24;42.90
13387;BME280;6763;48.524;9.044;2023-01-29T05:19:13;98791.59;;;6.23;43.34
13387;BME280;6763;48.524;9.044;2023-01-29T05:21:40;98795.84;;;6.21;43.40
13387;BME280;6763;48.524;9.044;2023-01-29T05:24:16;98791.53;;;6.19;43.24
13387;BME280;6763;48.524;9.044;2023-01-29T05:26:43;98795.81;;;6.17;43.25
13387;BME280;6763;48.524;9.044;2023-01-29T05:29:28;98796.63;;;6.14;43.27
13387;BME280;6763;48.524;9.044;2023-01-29T05:31:53;98796.63;;;6.14;42.85
13387;BME280;6763;48.524;9.044;2023-01-29T05:34:18;98790.56;;;6.12;42.55
13387;BME280;6763;48.524;9.044;2023-01-29T05:36:44;98794.00;;;6.11;42.70
13387;BME280;6763;48.524;9.044;2023-01-29T05:39:09;98791.44;;;6.11;43.19
13387;BME280;6763;48.524;9.044;2023-01-29T05:41:35;98786.28;;;6.11;43.20
13387;BME280;6763;48.524;9.044;2023-01-29T05:44:00;98788.03;;;6.14;43.21
13387;BME280;6763;48.524;9.044;2023-01-29T05:46:25;98786.34;;;6.14;42.83
13387;BME280;6763;48.524;9.044;2023-01-29T05:48:51;98795.75;;;6.14;43.24
13387;BME280;6763;48.524;9.044;2023-01-29T05:51:17;98789.75;;;6.15;42.95
13387;BME280;6763;48.524;9.044;2023-01-29T05:53:42;98784.66;;;6.16;43.03
13387;BME280;6763;48.524;9.044;2023-01-29T05:56:07;98789.78;;;6.18;43.09
13387;BME280;6763;48.524;9.044;2023-01-29T05:58:33;98785.56;;;6.21;42.95
13387;BME280;6763;48.524;9.044;2023-01-29T06:01:10;98791.63;;;6.25;43.25
13387;BME280;6763;48.524;9.044;2023-01-29T06:03:35;98794.22;;;6.28;43.27
13387;BME280;6763;48.524;9.044;2023-01-29T06:06:01;98792.56;;;6.30;43.20
13387;BME280;6763;48.524;9.044;2023-01-29T06:08:26;98779.69;;;6.29;43.06
13387;BME280;6763;48.524;9.044;2023-01-29T06:10:51;98770.19;;;6.24;42.84
13387;BME280;6763;48.524;9.044;2023-01-29T06:13:17;98757.25;;;6.18;42.96
13387;BME280;6763;48.524;9.044;2023-01-29T06:15:42;98761.47;;;6.13;42.87
13387;BME280;6763;48.524;9.044;2023-01-29T06:18:07;98766.59;;;6.13;43.09
13387;BME280;6763;48.524;9.044;2023-01-29T06:20:33;98763.22;;;6.14;43.37
13387;BME280;6763;48.524;9.044;2023-01-29T06:22:58;98762.38;;;6.17;43.40
13387;BME280;6763;48.524;9.044;2023-01-29T06:25:24;98760.69;;;6.19;43.25
13387;BME280;6763;48.524;9.044;2023-01-29T06:27:50;98760.66;;;6.17;43.11
13387;BME280;6763;48.524;9.044;2023-01-29T06:30:15;98756.34;;;6.15;43.15
13387;BME280;6763;48.524;9.044;2023-01-29T06:32:41;98762.34;;;6.14;43.42
13387;BME280;6763;48.524;9.044;2023-01-29T06:35:06;98773.50;;;6.14;43.39
13387;BME280;6763;48.524;9.044;2023-01-29T06:37:34;98776.06;;;6.16;43.38
13387;BME280;6763;48.524;9.044;2023-01-29T06:39:59;98780.38;;;6.17;43.35
13387;BME280;6763;48.524;9.044;2023-01-29T06:42:24;98781.22;;;6.17;43.32
13387;BME280;6763;48.524;9.044;2023-01-29T06:44:55;98784.72;;;6.21;42.89
13387;BME280;6763;48.524;9.044;2023-01-29T06:47:21;98777.00;;;6.21;43.22
13387;BME280;6763;48.524;9.044;2023-01-29T06:49:46;98782.13;;;6.19;43.35
13387;BME280;6763;48.524;9.044;2023-01-29T06:52:12;98783.84;;;6.20;43.06
13387;BME280;6763;48.524;9.044;2023-01-29T06:54:37;98791.59;;;6.23;43.38
13387;BME280;6763;48.524;9.044;2023-01-29T06:57:02;98787.28;;;6.22;43.03
13387;BME280;6763;48.524;9.044;2023-01-29T06:59:28;98794.16;;;6.22;43.17
13387;BME280;6763;48.524;9.044;2023-01-29T07:01:53;98799.25;;;6.20;42.68
13387;BME280;6763;48.524;9.044;2023-01-29T07:04:18;98794.97;;;6.19;42.94
13387;BME280;6763;48.524;9.044;2023-01-29T07:06:44;98787.28;;;6.19;42.73
13387;BME280;6763;48.524;9.044;2023-01-29T07:09:12;98798.44;;;6.21;42.61
13387;BME280;6763;48.524;9.044;2023-01-29T07:11:38;98804.41;;;6.20;42.70
13387;BME280;6763;48.524;9.044;2023-01-29T07:14:03;98806.09;;;6.18;42.53
13387;BME280;6763;48.524;9.044;2023-01-29T07:16:28;98811.22;;;6.17;42.74
13387;BME280;6763;48.524;9.044;2023-01-29T07:18:54;98811.19;;;6.15;42.48
13387;BME280;6763;48.524;9.044;2023-01-29T07:21:19;98813.69;;;6.12;42.39
13387;BME280;6763;48.524;9.044;2023-01-29T07:23:45;98809.38;;;6.10;42.75
13387;BME280;6763;48.524;9.044;2023-01-29T07:26:11;98811.09;;;6.09;42.28
13387;BME280;6763;48.524;9.044;2023-01-29T07:28:37;98806.81;;;6.10;42.73
13387;BME280;6763;48.524;9.044;2023-01-29T07:31:04;98811.94;;;6.10;42.17
13387;BME280;6763;48.524;9.044;2023-01-29T07:33:30;98817.97;;;6.10;42.58
13387;BME280;6763;48.524;9.044;2023-01-29T07:35:55;98817.13;;;6.13;42.25
13387;BME280;6763;48.524;9.044;2023-01-29T07:38:21;98817.19;;;6.17;42.38
13387;BME280;6763;48.524;9.044;2023-01-29T07:40:46;98819.00;;;6.23;42.50
13387;BME280;6763;48.524;9.044;2023-01-29T07:43:13;98806.25;;;6.28;42.19
13387;BME280;6763;48.524;9.044;2023-01-29T07:45:39;98806.34;;;6.35;42.45
13387;BME280;6763;48.524;9.044;2023-01-29T07:48:05;98806.41;;;6.40;42.08
13387;BME280;6763;48.524;9.044;2023-01-29T07:50:33;98825.28;;;6.42;41.61
13387;BME280;6763;48.524;9.044;2023-01-29T07:52:59;98835.56;;;6.42;42.10
13387;BME280;6763;48.524;9.044;2023-01-29T07:55:25;98832.13;;;6.41;41.47
13387;BME280;6763;48.524;9.044;2023-01-29T07:58:01;98832.16;;;6.43;41.77
13387;BME280;6763;48.524;9.044;2023-01-29T08:00:27;98838.19;;;6.43;41.90
13387;BME280;6763;48.524;9.044;2023-01-29T08:02:53;98836.53;;;6.48;42.06
13387;BME280;6763;48.524;9.044;2023-01-29T08:05:19;98839.22;;;6.57;41.89
13387;BME280;6763;48.524;9.044;2023-01-29T08:07:45;98841.94;;;6.66;41.68
13387;BME280;6763;48.524;9.044;2023-01-29T08:10:10;98842.88;;;6.74;41.87
13387;BME280;6763;48.524;9.044;2023-01-29T08:12:36;98854.13;;;6.82;41.50
13387;BME280;6763;48.524;9.044;2023-01-29T08:15:01;98851.63;;;6.85;41.64
13387;BME280;6763;48.524;9.044;2023-01-29T08:17:26;98849.09;;;6.90;41.34
13387;BME280;6763;48.524;9.044;2023-01-29T08:19:52;98839.72;;;6.94;41.44
13387;BME280;6763;48.524;9.044;2023-01-29T08:22:17;98844.91;;;6.98;41.17
13387;BME280;6763;48.524;9.044;2023-01-29T08:24:42;98831.22;;;7.01;41.53
13387;BME280;6763;48.524;9.044;2023-01-29T08:27:08;98843.28;;;7.06;41.26
13387;BME280;6763;48.524;9.044;2023-01-29T08:29:34;98847.66;;;7.12;40.76
13387;BME280;6763;48.524;9.044;2023-01-29T08:31:59;98834.81;;;7.15;40.20
13387;BME280;6763;48.524;9.044;2023-01-29T08:34:25;98828.84;;;7.19;40.52
13387;BME280;6763;48.524;9.044;2023-01-29T08:36:50;98831.47;;;7.22;40.30
13387;BME280;6763;48.524;9.044;2023-01-29T08:39:17;98839.28;;;7.29;40.24
13387;BME280;6763;48.524;9.044;2023-01-29T08:41:42;98841.94;;;7.34;39.47
13387;BME280;6763;48.524;9.044;2023-01-29T08:44:08;98842.75;;;7.31;39.13
13387;BME280;6763;48.524;9.044;2023-01-29T08:46:33;98849.63;;;7.32;39.10
13387;BME280;6763;48.524;9.044;2023-01-29T08:48:58;98847.13;;;7.38;39.12
13387;BME280;6763;48.524;9.044;2023-01-29T08:51:24;98849.75;;;7.44;39.08
13387;BME280;6763;48.524;9.044;2023-01-29T08:53:50;98854.13;;;7.52;38.83
13387;BME280;6763;48.524;9.044;2023-01-29T08:56:16;98850.78;;;7.62;38.78
13387;BME280;6763;48.524;9.044;2023-01-29T08:58:41;98856.94;;;7.74;38.57
13387;BME280;6763;48.524;9.044;2023-01-29T09:01:09;98857.91;;;7.87;38.49
13387;BME280;6763;48.524;9.044;2023-01-29T09:03:36;98858.81;;;7.90;37.99
13387;BME280;6763;48.524;9.044;2023-01-29T09:06:02;98861.34;;;7.89;37.37
13387;BME280;6763;48.524;9.044;2023-01-29T09:08:27;98866.50;;;7.87;37.96
13387;BME280;6763;48.524;9.044;2023-01-29T09:10:53;98861.41;;;7.93;38.03
13387;BME280;6763;48.524;9.044;2023-01-29T09:13:18;98869.19;;;7.98;37.77
13387;BME280;6763;48.524;9.044;2023-01-29T09:15:44;98867.50;;;8.04;37.72
13387;BME280;6763;48.524;9.044;2023-01-29T09:18:09;98862.41;;;8.10;37.51
13387;BME280;6763;48.524;9.044;2023-01-29T09:20:34;98865.84;;;8.12;37.39
13387;BME280;6763;48.524;9.044;2023-01-29T09:23:04;98868.47;;;8.17;37.44
13387;BME280;6763;48.524;9.044;2023-01-29T09:25:30;98869.41;;;8.22;37.29
13387;BME280;6763;48.524;9.044;2023-01-29T09:27:55;98871.19;;;8.29;37.33
13387;BME280;6763;48.524;9.044;2023-01-29T09:30:21;98874.66;;;8.33;37.18
13387;BME280;6763;48.524;9.044;2023-01-29T09:32:46;98876.31;;;8.28;37.20
13387;BME280;6763;48.524;9.044;2023-01-29T09:35:11;98881.41;;;8.23;36.80
13387;BME280;6763;48.524;9.044;2023-01-29T09:37:37;98878.84;;;8.23;36.92
13387;BME280;6763;48.524;9.044;2023-01-29T09:40:02;98880.56;;;8.23;37.00
13387;BME280;6763;48.524;9.044;2023-01-29T09:42:37;98873.69;;;8.23;37.05
13387;BME280;6763;48.524;9.044;2023-01-29T09:47:37;98869.47;;;8.28;36.94
13387;BME280;6763;48.524;9.044;2023-01-29T09:50:22;98872.13;;;8.37;36.82
13387;BME280;6763;48.524;9.044;2023-01-29T09:52:55;98876.41;;;8.38;36.69
13387;BME280;6763;48.524;9.044;2023-01-29T09:55:31;98879.84;;;8.39;36.88
13387;BME280;6763;48.524;9.044;2023-01-29T09:58:20;98867.00;;;8.43;36.69
13387;BME280;6763;48.524;9.044;2023-01-29T10:03:49;98864.47;;;8.51;36.02
13387;BME280;6763;48.524;9.044;2023-01-29T10:12:23;98859.34;;;8.55;36.40
13387;BME280;6763;48.524;9.044;2023-01-29T10:25:38;98819.72;;;8.49;35.92
13387;BME280;6763;48.524;9.044;2023-01-29T10:28:15;98812.19;;;8.88;35.39
13387;BME280;6763;48.524;9.044;2023-01-29T10:30:46;98800.31;;;9.31;35.06
13387;BME280;6763;48.524;9.044;2023-01-29T10:33:24;98795.19;;;9.55;33.97
13387;BME280;6763;48.524;9.044;2023-01-29T10:35:57;98793.47;;;9.89;34.39
13387;BME280;6763;48.524;9.044;2023-01-29T10:38:43;98796.09;;;10.27;33.54
13387;BME280;6763;48.524;9.044;2023-01-29T10:48:59;98790.72;;;10.95;31.97
13387;BME280;6763;48.524;9.044;2023-01-29T10:57:14;98805.44;;;10.79;32.41
13387;BME280;6763;48.524;9.044;2023-01-29T11:02:18;98790.72;;;10.96;31.54
13387;BME280;6763;48.524;9.044;2023-01-29T11:04:46;98789.06;;;10.83;31.83
13387;BME280;6763;48.524;9.044;2023-01-29T11:07:12;98792.50;;;10.88;31.96
13387;BME280;6763;48.524;9.044;2023-01-29T11:09:43;98783.75;;;11.10;31.95
13387;BME280;6763;48.524;9.044;2023-01-29T11:12:13;98779.38;;;11.21;31.71
13387;BME280;6763;48.524;9.044;2023-01-29T11:14:55;98776.72;;;11.32;31.67
13387;BME280;6763;48.524;9.044;2023-01-29T11:17:24;98770.63;;;11.42;31.55
13387;BME280;6763;48.524;9.044;2023-01-29T11:19:51;98774.81;;;11.64;31.29
13387;BME280;6763;48.524;9.044;2023-01-29T11:22:27;98768.56;;;11.91;30.75
13387;BME280;6763;48.524;9.044;2023-01-29T11:25:28;98764.31;;;11.82;30.50
13387;BME280;6763;48.524;9.044;2023-01-29T11:28:01;98773.03;;;11.65;30.61
13387;BME280;6763;48.524;9.044;2023-01-29T11:30:32;98780.03;;;11.58;30.39
13387;BME280;6763;48.524;9.044;2023-01-29T11:35:29;98782.56;;;11.70;30.36
13387;BME280;6763;48.524;9.044;2023-01-29T11:38:07;98786.88;;;11.65;30.62
13387;BME280;6763;48.524;9.044;2023-01-29T11:40:40;98780.88;;;11.59;30.35
13387;BME280;6763;48.524;9.044;2023-01-29T11:43:27;98778.31;;;11.56;30.81
13387;BME280;6763;48.524;9.044;2023-01-29T11:45:56;98773.91;;;11.67;30.64
13387;BME280;6763;48.524;9.044;2023-01-29T11:48:31;98767.84;;;11.74;30.50
13387;BME280;6763;48.524;9.044;2023-01-29T11:50:59;98772.22;;;11.64;30.50
13387;BME280;6763;48.524;9.044;2023-01-29T11:53:58;98770.69;;;11.33;30.45
13387;BME280;6763;48.524;9.044;2023-01-29T11:56:28;98763.81;;;11.28;30.81
13387;BME280;6763;48.524;9.044;2023-01-29T11:58:55;98751.69;;;11.30;31.23
13387;BME280;6763;48.524;9.044;2023-01-29T12:01:40;98753.28;;;11.50;30.98
13387;BME280;6763;48.524;9.044;2023-01-29T12:04:19;98742.00;;;11.54;30.75
13387;BME280;6763;48.524;9.044;2023-01-29T12:06:47;98742.97;;;11.43;30.44
13387;BME280;6763;48.524;9.044;2023-01-29T12:09:19;98741.44;;;11.11;30.94
13387;BME280;6763;48.524;9.044;2023-01-29T12:11:46;98744.09;;;10.99;31.38
13387;BME280;6763;48.524;9.044;2023-01-29T12:14:30;98746.66;;;11.02;31.47
13387;BME280;6763;48.524;9.044;2023-01-29T12:17:10;98733.69;;;11.04;31.37
13387;BME280;6763;48.524;9.044;2023-01-29T12:19:46;98736.34;;;10.96;31.08
13387;BME280;6763;48.524;9.044;2023-01-29T12:22:20;98743.22;;;10.99;31.76
13387;BME280;6763;48.524;9.044;2023-01-29T12:27:20;98734.69;;;10.74;31.78
13387;BME280;6763;48.524;9.044;2023-01-29T12:30:02;98715.78;;;10.54;32.16
13387;BME280;6763;48.524;9.044;2023-01-29T12:35:11;98703.78;;;10.39;32.31
13387;BME280;6763;48.524;9.044;2023-01-29T12:38:12;98696.00;;;10.44;32.28
13387;BME280;6763;48.524;9.044;2023-01-29T12:40:50;98690.78;;;10.57;32.41
13387;BME280;6763;48.524;9.044;2023-01-29T12:43:43;98683.69;;;10.91;31.99
13387;BME280;6763;48.524;9.044;2023-01-29T12:46:36;98669.72;;;11.15;31.26
13387;BME280;6763;48.524;9.044;2023-01-29T12:49:11;98660.97;;;11.30;31.36
13387;BME280;6763;48.524;9.044;2023-01-29T12:51:44;98654.94;;;11.29;31.42
13387;BME280;6763;48.524;9.044;2023-01-29T12:54:18;98635.81;;;11.42;31.13
13387;BME280;6763;48.524;9.044;2023-01-29T12:56:48;98634.03;;;11.50;30.99
13387;BME280;6763;48.524;9.044;2023-01-29T12:59:48;98627.03;;;11.57;30.89
13387;BME280;6763;48.524;9.044;2023-01-29T13:05:01;98612.28;;;11.65;30.34
13387;BME280;6763;48.524;9.044;2023-01-29T13:07:36;98605.34;;;11.65;30.52
13387;BME280;6763;48.524;9.044;2023-01-29T13:10:09;98596.00;;;11.49;30.98
13387;BME280;6763;48.524;9.044;2023-01-29T13:12:38;98599.56;;;11.36;31.04
13387;BME280;6763;48.524;9.044;2023-01-29T13:15:23;98591.88;;;11.30;31.17
13387;BME280;6763;48.524;9.044;2023-01-29T13:17:56;98590.22;;;11.20;31.38
13387;BME280;6763;48.524;9.044;2023-01-29T13:20:29;98592.81;;;11.18;31.88
13387;BME280;6763;48.524;9.044;2023-01-29T13:23:00;98590.97;;;11.31;31.69
13387;BME280;6763;48.524;9.044;2023-01-29T13:25:28;98594.34;;;11.42;31.52
13387;BME280;6763;48.524;9.044;2023-01-29T13:27:53;98593.41;;;11.51;31.04
13387;BME280;6763;48.524;9.044;2023-01-29T13:30:24;98596.97;;;11.41;31.24
13387;BME280;6763;48.524;9.044;2023-01-29T13:32:51;98594.47;;;11.29;31.10
13387;BME280;6763;48.524;9.044;2023-01-29T13:35:19;98598.00;;;11.18;31.64
13387;BME280;6763;48.524;9.044;2023-01-29T13:37:53;98587.75;;;11.03;31.63
13387;BME280;6763;48.524;9.044;2023-01-29T13:40:29;98599.94;;;10.92;31.69
13387;BME280;6763;48.524;9.044;2023-01-29T13:42:57;98591.38;;;10.83;31.76
13387;BME280;6763;48.524;9.044;2023-01-29T13:45:32;98590.50;;;10.82;31.99
13387;BME280;6763;48.524;9.044;2023-01-29T13:48:28;98587.94;;;10.81;32.16
13387;BME280;6763;48.524;9.044;2023-01-29T13:51:00;98589.66;;;10.83;31.75
13387;BME280;6763;48.524;9.044;2023-01-29T13:53:31;98587.09;;;10.79;32.11
13387;BME280;6763;48.524;9.044;2023-01-29T13:58:57;98594.84;;;10.77;31.73
13387;BME280;6763;48.524;9.044;2023-01-29T14:04:25;98604.56;;;10.39;32.05
13387;BME280;6763;48.524;9.044;2023-01-29T14:06:57;98605.47;;;10.29;32.58
13387;BME280;6763;48.524;9.044;2023-01-29T14:17:13;98616.78;;;9.94;32.97
13387;BME280;6763;48.524;9.044;2023-01-29T14:19:46;98620.25;;;9.81;33.38
13387;BME280;6763;48.524;9.044;2023-01-29T14:22:23;98622.88;;;9.72;33.61
13387;BME280;6763;48.524;9.044;2023-01-29T14:25:15;98615.16;;;9.54;33.58
13387;BME280;6763;48.524;9.044;2023-01-29T14:27:46;98621.19;;;9.41;34.33
13387;BME280;6763;48.524;9.044;2023-01-29T14:30:16;98614.28;;;9.29;34.71
13387;BME280;6763;48.524;9.044;2023-01-29T14:32:47;98623.78;;;9.24;34.55
13387;BME280;6763;48.524;9.044;2023-01-29T14:35:22;98627.22;;;9.16;34.98
13387;BME280;6763;48.524;9.044;2023-01-29T14:37:51;98622.91;;;9.09;35.13
13387;BME280;6763;48.524;9.044;2023-01-29T14:42:59;98623.78;;;8.94;35.48
13387;BME280;6763;48.524;9.044;2023-01-29T14:45:29;98632.34;;;8.86;35.86
13387;BME280;6763;48.524;9.044;2023-01-29T14:55:48;98626.31;;;8.68;36.37
13387;BME280;6763;48.524;9.044;2023-01-29T14:58:29;98624.53;;;8.61;36.30
13387;BME280;6763;48.524;9.044;2023-01-29T15:00:58;98625.41;;;8.56;36.93
13387;BME280;6763;48.524;9.044;2023-01-29T15:04:04;98626.25;;;8.50;36.92
13387;BME280;6763;48.524;9.044;2023-01-29T15:06:40;98621.94;;;8.51;37.00
13387;BME280;6763;48.524;9.044;2023-01-29T15:09:17;98633.16;;;8.57;36.74
13387;BME280;6763;48.524;9.044;2023-01-29T15:17:51;98621.88;;;8.28;37.38
13387;BME280;6763;48.524;9.044;2023-01-29T15:20:30;98618.34;;;8.20;37.26
13387;BME280;6763;48.524;9.044;2023-01-29T15:22:56;98604.56;;;8.10;37.50
13387;BME280;6763;48.524;9.044;2023-01-29T15:25:22;98607.13;;;8.07;37.92
13387;BME280;6763;48.524;9.044;2023-01-29T15:27:48;98614.06;;;8.16;37.78
13387;BME280;6763;48.524;9.044;2023-01-29T15:30:21;98614.13;;;8.33;37.73
13387;BME280;6763;48.524;9.044;2023-01-29T15:32:47;98619.34;;;8.37;37.35
13387;BME280;6763;48.524;9.044;2023-01-29T15:37:59;98620.16;;;8.27;37.68
13387;BME280;6763;48.524;9.044;2023-01-29T15:40:25;98614.94;;;8.21;37.98
13387;BME280;6763;48.524;9.044;2023-01-29T15:42:51;98616.63;;;8.16;38.04